Terminal Aerodrome Forecast
Issued by NWS Billings, MT

Home | Current Version | Previous Version | Graphics & Text | Print | Product List | Glossary On
Versions: 1 2 3 4 5 6 7 8 9 10 11 12 13 14 15 16 17 18 19 20 21 22 23 24 25 26 27 28 29 30 31 32 33 34 35 36
975
FTUS45 KBYZ 222311 AAA
TAFMLS
TAF AMD
KMLS 222311Z 2223/2318 31010G23KT P6SM SKC
     FM230200 VRB05KT 5SM FU SCT250
     FM230700 12007KT P6SM SCT020 SCT200=

USA.gov is the U.S. government's official web portal to all federal, state and local government web resources and services.